Time;durP1;ratioP1;P1;durP2;ratioP2;P2;SDS_P1;SDS_P2;PMS_P1;PMS_P2;Temp;Humidity;BMP_temperature;BMP_pressure;BME280_temperature;BME280_humidity;BME280_pressure;Samples;Min_cycle;Max_cycle;Signal;HPM_P1;HPM_P2
2021/01/19 00:03:23;;;;;;;23.05;11.40;;;-1.20;99.90;;;;;;20823801;28;20071;-81
2021/01/19 00:13:24;;;;;;;42.63;11.75;;;-0.90;99.90;;;;;;20824054;28;20060;-79
2021/01/19 00:23:25;;;;;;;101.10;14.50;;;-1.30;99.90;;;;;;20819307;28;20021;-79
2021/01/19 00:33:26;;;;;;;191.20;15.38;;;-1.30;99.90;;;;;;20823482;28;20053;-80
2021/01/19 00:43:26;;;;;;;36.67;11.40;;;-1.50;99.90;;;;;;20835733;28;20054;-80
2021/01/19 00:53:27;;;;;;;26.42;10.50;;;-1.80;99.90;;;;;;20856382;28;20094;-79
2021/01/19 01:03:29;;;;;;;60.35;13.02;;;-1.90;99.90;;;;;;20810275;28;20058;-79
2021/01/19 01:13:30;;;;;;;24.33;9.80;;;-2.30;99.90;;;;;;20823448;28;20075;-80
2021/01/19 01:23:31;;;;;;;148.73;16.23;;;-2.30;99.90;;;;;;20820502;28;20062;-80
2021/01/19 01:33:32;;;;;;;12.57;4.85;;;-2.80;99.90;;;;;;20803560;28;20515;-79
2021/01/19 01:43:33;;;;;;;12.88;5.63;;;-2.80;99.90;;;;;;20800708;28;20045;-78
2021/01/19 01:53:35;;;;;;;13.10;4.88;;;-3.00;99.90;;;;;;20752242;28;20030;-79
2021/01/19 02:03:36;;;;;;;7.68;4.63;;;-3.00;99.90;;;;;;20750018;28;20033;-78
2021/01/19 02:13:58;;;;;;;9.93;4.30;;;-3.00;99.90;;;;;;20749209;28;20058;-80
2021/01/19 02:24:07;;;;;;;7.70;4.07;;;-3.00;99.90;;;;;;20748952;28;20026;-81
2021/01/19 02:34:23;;;;;;;9.35;4.30;;;-3.10;99.90;;;;;;20816236;28;20523;-80
2021/01/19 02:44:31;;;;;;;12.13;4.20;;;-3.10;99.90;;;;;;20819460;28;20099;-80
2021/01/19 02:54:33;;;;;;;7.03;3.70;;;-3.20;99.90;;;;;;20861957;28;20041;-80
2021/01/19 03:04:36;;;;;;;12.25;4.20;;;-3.10;99.90;;;;;;20791385;28;20037;-81
2021/01/19 03:14:37;;;;;;;10.73;4.07;;;-3.10;99.90;;;;;;20830773;28;20038;-80
2021/01/19 03:24:38;;;;;;;11.70;4.38;;;-3.40;99.90;;;;;;20829609;28;20037;-83
2021/01/19 03:34:39;;;;;;;16.70;5.55;;;-3.50;99.90;;;;;;20830580;28;20061;-81
2021/01/19 03:44:40;;;;;;;9.95;4.88;;;-3.80;99.90;;;;;;20799086;28;20060;-81
2021/01/19 03:54:41;;;;;;;13.25;5.47;;;-3.60;99.90;;;;;;20811979;28;20038;-81
2021/01/19 04:04:42;;;;;;;9.23;4.65;;;-4.10;99.90;;;;;;20827812;28;20054;-81
2021/01/19 04:14:42;;;;;;;9.52;4.55;;;-3.90;99.90;;;;;;20830270;28;20040;-81
2021/01/19 04:24:43;;;;;;;10.68;5.43;;;-3.90;99.90;;;;;;20828518;28;20030;-81
2021/01/19 04:34:44;;;;;;;9.38;4.68;;;-3.80;99.90;;;;;;20830737;28;20034;-81
2021/01/19 04:44:46;;;;;;;11.55;4.93;;;-3.80;99.90;;;;;;20766131;28;20034;-81
2021/01/19 04:55:07;;;;;;;4.80;2.40;;;-4.20;99.90;;;;;;20821828;28;20041;-81
2021/01/19 05:05:37;;;;;;;4.30;2.33;;;-4.40;99.90;;;;;;20816764;28;20030;-81
2021/01/19 05:15:48;;;;;;;8.07;3.80;;;-4.40;99.90;;;;;;20770377;28;20099;-79
2021/01/19 05:25:57;;;;;;;15.07;4.85;;;-3.90;99.90;;;;;;20817261;28;20040;-77
2021/01/19 05:36:09;;;;;;;8.13;4.55;;;-3.90;99.90;;;;;;20818467;28;20382;-78
2021/01/19 05:46:10;;;;;;;9.40;4.70;;;-3.90;99.90;;;;;;20822409;28;20034;-78
2021/01/19 05:56:20;;;;;;;16.65;5.55;;;-4.30;99.90;;;;;;20805856;28;20108;-79
2021/01/19 06:06:24;;;;;;;12.57;4.85;;;-4.40;99.90;;;;;;20824311;28;20065;-80
2021/01/19 06:16:26;;;;;;;21.00;6.07;;;-4.30;99.90;;;;;;20758907;28;20059;-80
2021/01/19 06:26:27;;;;;;;11.43;4.90;;;-4.50;99.90;;;;;;20826113;28;20044;-80
2021/01/19 06:36:36;;;;;;;21.05;8.00;;;-4.80;99.90;;;;;;20773464;28;20030;-80
2021/01/19 06:46:44;;;;;;;20.85;7.47;;;-5.00;99.90;;;;;;20820489;28;20026;-80
2021/01/19 06:57:04;;;;;;;12.75;5.38;;;-4.70;99.90;;;;;;20822522;28;20034;-80
2021/01/19 07:07:13;;;;;;;14.02;5.70;;;-5.00;99.90;;;;;;20840273;28;20117;-80
2021/01/19 07:17:18;;;;;;;16.83;7.38;;;-5.20;99.90;;;;;;20808222;28;20088;-79
2021/01/19 07:27:24;;;;;;;23.23;9.32;;;-5.10;99.90;;;;;;20819289;28;20129;-80
2021/01/19 07:37:33;;;;;;;17.73;8.98;;;-4.70;99.90;;;;;;20833700;28;20030;-81
2021/01/19 07:47:44;;;;;;;13.38;6.35;;;-4.00;99.90;;;;;;20833797;28;20061;-81
2021/01/19 07:57:48;;;;;;;15.20;8.20;;;-4.30;99.90;;;;;;20838970;28;20380;-80
2021/01/19 08:07:48;;;;;;;16.67;9.10;;;-3.80;99.90;;;;;;20756554;28;20356;-82
2021/01/19 08:17:51;;;;;;;19.38;9.90;;;-1.70;99.90;;;;;;20810245;28;20393;-80
2021/01/19 08:27:52;;;;;;;12.80;6.22;;;0.00;99.90;;;;;;20834339;28;20044;-80
2021/01/19 08:37:54;;;;;;;;;;;0.60;99.90;;;;;;20808313;28;20129;-81
2021/01/19 08:48:06;;;;;;;15.53;8.07;;;1.60;99.90;;;;;;20815707;28;19920;-81
2021/01/19 08:58:07;;;;;;;16.75;9.52;;;2.40;99.90;;;;;;20813213;28;20122;-81
2021/01/19 09:08:13;;;;;;;19.20;10.90;;;3.10;99.90;;;;;;20809452;28;20030;-79
2021/01/19 09:18:15;;;;;;;15.77;8.15;;;4.10;99.90;;;;;;20799579;28;20507;-81
2021/01/19 09:28:16;;;;;;;17.23;10.25;;;5.00;99.90;;;;;;20819171;28;20034;-81
2021/01/19 09:38:24;;;;;;;29.07;14.50;;;6.00;99.90;;;;;;20809980;28;20049;-81
2021/01/19 09:48:26;;;;;;;22.83;9.07;;;4.80;99.90;;;;;;20818506;28;20061;-81
2021/01/19 09:58:28;;;;;;;31.40;15.10;;;2.10;99.90;;;;;;20833481;28;20034;-79
2021/01/19 10:08:30;;;;;;;40.38;19.02;;;2.80;99.90;;;;;;20839107;28;20046;-80
2021/01/19 10:18:32;;;;;;;30.10;15.50;;;3.10;99.90;;;;;;20832203;28;20467;-82
2021/01/19 10:28:44;;;;;;;22.40;10.88;;;4.20;99.90;;;;;;20737049;28;20035;-83
2021/01/19 10:38:45;;;;;;;21.65;11.80;;;3.90;99.90;;;;;;20668449;28;20482;-83
2021/01/19 10:48:46;;;;;;;21.58;11.25;;;3.20;99.90;;;;;;20714095;28;20538;-82
2021/01/19 10:58:47;;;;;;;17.87;10.30;;;4.50;99.90;;;;;;20729234;28;20049;-83
2021/01/19 11:08:48;;;;;;;14.00;8.17;;;6.40;99.90;;;;;;20739241;28;20818;-82
2021/01/19 11:18:49;;;;;;;17.17;9.70;;;7.80;99.90;;;;;;20792318;28;20029;-83
2021/01/19 11:28:50;;;;;;;16.70;9.87;;;7.40;99.90;;;;;;20810686;28;20042;-81
2021/01/19 11:38:53;;;;;;;20.17;11.53;;;7.50;99.90;;;;;;20795287;28;20842;-79
2021/01/19 11:48:57;;;;;;;11.88;8.00;;;7.40;99.90;;;;;;20737228;28;20041;-80
2021/01/19 11:58:58;;;;;;;9.65;6.43;;;5.80;99.90;;;;;;20814082;28;20449;-83
2021/01/19 12:08:59;;;;;;;8.97;5.57;;;6.70;99.90;;;;;;20797994;28;20032;-80
2021/01/19 12:19:01;;;;;;;12.27;6.77;;;5.60;99.90;;;;;;20794084;28;20060;-80
2021/01/19 12:29:02;;;;;;;22.15;11.02;;;5.30;99.90;;;;;;20817013;28;20522;-82
2021/01/19 12:39:04;;;;;;;24.27;11.37;;;7.30;99.90;;;;;;20817759;28;20038;-82
2021/01/19 12:49:05;;;;;;;17.13;8.82;;;7.40;99.90;;;;;;20818354;28;20095;-81
2021/01/19 12:59:06;;;;;;;12.32;6.55;;;7.00;99.90;;;;;;20739193;28;20041;-83
2021/01/19 13:09:07;;;;;;;9.87;6.17;;;7.80;99.90;;;;;;20736176;28;20153;-82
2021/01/19 13:19:09;;;;;;;11.47;6.07;;;8.30;99.90;;;;;;20786485;28;20150;-81
2021/01/19 13:29:09;;;;;;;14.90;8.10;;;7.60;99.90;;;;;;20783080;28;20034;-80
2021/01/19 13:39:11;;;;;;;12.30;6.57;;;6.80;99.90;;;;;;20825968;28;20083;-82
2021/01/19 13:49:15;;;;;;;11.25;6.55;;;4.60;99.90;;;;;;20776673;28;20021;-81
2021/01/19 13:59:16;;;;;;;15.45;6.90;;;4.00;99.90;;;;;;20828017;28;20030;-82
2021/01/19 14:09:17;;;;;;;12.07;6.77;;;4.60;99.90;;;;;;20782447;28;20033;-82
2021/01/19 14:19:18;;;;;;;13.20;8.13;;;4.90;99.90;;;;;;20769055;28;20038;-84
2021/01/19 14:29:19;;;;;;;13.83;7.20;;;5.00;99.90;;;;;;20818134;28;20061;-80
2021/01/19 14:39:23;;;;;;;13.33;8.20;;;4.90;99.90;;;;;;20809595;28;20034;-82
2021/01/19 14:49:24;;;;;;;15.02;9.23;;;4.30;99.90;;;;;;20799582;28;20818;-83
2021/01/19 14:59:24;;;;;;;16.80;9.77;;;3.80;99.90;;;;;;20824033;28;20038;-83
2021/01/19 15:09:28;;;;;;;22.23;9.00;;;3.60;99.90;;;;;;20778888;28;20029;-81
2021/01/19 15:19:30;;;;;;;17.15;9.55;;;3.10;99.90;;;;;;21035517;28;20134;-81
2021/01/19 15:29:31;;;;;;;16.85;9.18;;;3.10;99.90;;;;;;21154032;28;20039;-82
2021/01/19 15:39:33;;;;;;;16.07;7.70;;;3.50;99.90;;;;;;21136361;28;20031;-83
2021/01/19 15:49:34;;;;;;;15.52;7.80;;;3.40;99.90;;;;;;21133307;28;20382;-82
2021/01/19 15:59:35;;;;;;;14.90;7.88;;;2.50;99.90;;;;;;21016922;28;20029;-83
2021/01/19 16:09:36;;;;;;;12.23;7.27;;;2.30;99.90;;;;;;20787149;28;20042;-79
2021/01/19 16:19:37;;;;;;;28.20;12.23;;;2.40;99.90;;;;;;20791689;28;20400;-78
2021/01/19 16:29:38;;;;;;;16.80;7.38;;;2.60;99.90;;;;;;20794771;28;20522;-79
2021/01/19 16:39:39;;;;;;;12.97;7.50;;;2.50;99.90;;;;;;20792313;28;20139;-78
2021/01/19 16:49:39;;;;;;;;;;;2.30;99.90;;;;;;20794685;28;20184;-78
2021/01/19 16:59:41;;;;;;;35.60;15.93;;;2.00;99.90;;;;;;20813720;28;20004;-78
2021/01/19 17:09:42;;;;;;;;;;;1.80;99.90;;;;;;20799726;28;20042;-82
2021/01/19 17:19:45;;;;;;;35.85;16.27;;;1.70;99.90;;;;;;20752830;28;20098;-81
2021/01/19 17:29:46;;;;;;;28.38;12.68;;;2.00;99.90;;;;;;20828036;28;20056;-79
2021/01/19 17:39:48;;;;;;;17.30;9.88;;;2.00;99.90;;;;;;20814214;28;20077;-79
2021/01/19 17:49:49;;;;;;;21.27;11.63;;;1.50;99.90;;;;;;20819298;28;20435;-79
2021/01/19 17:59:50;;;;;;;14.88;9.05;;;1.60;99.90;;;;;;20818102;28;20030;-79
2021/01/19 18:09:51;;;;;;;23.80;10.68;;;1.70;99.90;;;;;;20810969;28;20068;-79
2021/01/19 18:19:51;;;;;;;49.00;17.93;;;1.90;99.90;;;;;;20827654;28;20120;-80
2021/01/19 18:29:52;;;;;;;28.23;12.33;;;2.00;99.90;;;;;;20832427;28;20057;-80
2021/01/19 18:39:53;;;;;;;17.23;8.63;;;1.80;99.90;;;;;;20820237;28;20034;-78
2021/01/19 18:49:54;;;;;;;;;;;1.70;99.90;;;;;;20734756;28;20036;-80
2021/01/19 18:59:55;;;;;;;21.15;10.15;;;1.70;99.90;;;;;;20761786;28;19917;-79
2021/01/19 19:10:00;;;;;;;20.83;9.32;;;1.70;99.90;;;;;;20881278;28;20061;-79
2021/01/19 19:20:04;;;;;;;;;;;1.70;99.90;;;;;;20768994;28;20381;-81
2021/01/19 19:30:05;;;;;;;19.23;8.32;;;1.60;99.90;;;;;;20740862;28;19920;-79
2021/01/19 19:40:10;;;;;;;10.38;6.15;;;1.50;99.90;;;;;;20713637;28;20094;-79
2021/01/19 19:50:12;;;;;;;12.93;6.15;;;1.50;99.90;;;;;;20839156;28;20124;-79
2021/01/19 20:00:13;;;;;;;13.48;6.40;;;1.40;99.90;;;;;;20808784;28;20413;-77
2021/01/19 20:10:15;;;;;;;12.98;5.65;;;1.20;99.90;;;;;;20725631;28;20064;-79
2021/01/19 20:20:15;;;;;;;14.20;5.25;;;1.30;99.90;;;;;;20788402;28;20067;-78
2021/01/19 20:30:17;;;;;;;;;;;1.50;99.90;;;;;;20805682;28;20045;-81
2021/01/19 20:40:17;;;;;;;11.52;6.40;;;1.80;99.90;;;;;;20793093;28;19932;-78
2021/01/19 20:50:18;;;;;;;;;;;1.60;99.90;;;;;;20803641;28;20037;-79
2021/01/19 21:00:20;;;;;;;5.85;3.08;;;1.20;99.90;;;;;;20801450;28;19942;-80
2021/01/19 21:10:21;;;;;;;8.80;4.43;;;1.00;99.90;;;;;;20743431;28;20037;-78
2021/01/19 21:20:22;;;;;;;9.80;4.97;;;0.80;99.90;;;;;;20738253;28;20057;-80
2021/01/19 21:30:23;;;;;;;6.15;3.85;;;0.90;99.90;;;;;;20734504;28;20400;-79
2021/01/19 21:40:24;;;;;;;5.40;3.35;;;1.10;99.90;;;;;;20790267;28;20102;-78
2021/01/19 21:50:25;;;;;;;;;;;1.00;99.90;;;;;;20802927;28;20041;-79
2021/01/19 22:00:26;;;;;;;5.63;2.90;;;0.50;99.90;;;;;;20801032;28;20327;-78
2021/01/19 22:10:26;;;;;;;13.60;4.90;;;0.60;99.90;;;;;;20743602;28;20065;-79
2021/01/19 22:20:27;;;;;;;10.70;4.05;;;1.00;99.90;;;;;;20816119;28;20034;-80
2021/01/19 22:30:28;;;;;;;6.20;3.00;;;0.80;99.90;;;;;;20772423;28;20088;-79
2021/01/19 22:40:29;;;;;;;7.28;3.53;;;0.70;99.90;;;;;;20732795;28;20045;-79
2021/01/19 22:50:30;;;;;;;9.20;3.85;;;0.50;99.90;;;;;;20729168;28;20026;-79
2021/01/19 23:00:31;;;;;;;4.70;3.13;;;0.40;99.90;;;;;;20775379;28;20037;-77
2021/01/19 23:10:32;;;;;;;5.40;3.28;;;0.20;99.90;;;;;;20791147;28;20038;-80
2021/01/19 23:20:33;;;;;;;5.80;3.53;;;0.00;99.90;;;;;;20790633;28;20022;-78
2021/01/19 23:30:34;;;;;;;5.50;3.17;;;-0.10;99.90;;;;;;20790739;28;20095;-77
2021/01/19 23:40:36;;;;;;;7.28;3.50;;;-0.20;99.90;;;;;;20789005;28;20042;-78
2021/01/19 23:50:36;;;;;;;5.55;2.67;;;-0.10;99.90;;;;;;20726882;28;20154;-79
